Time;durP1;ratioP1;P1;durP2;ratioP2;P2;SDS_P1;SDS_P2;PMS_P1;PMS_P2;Temp;Humidity;BMP_temperature;BMP_pressure;BME280_temperature;BME280_humidity;BME280_pressure;Samples;Min_cycle;Max_cycle;Signal;HPM_P1;HPM_P2
2022/03/09 00:00:47;;;;;;;12.77;6.40;;;;;;;;;;7375168;19;20007;-87
2022/03/09 00:03:12;;;;;;;18.45;7.15;;;;;;;;;;7366975;19;20022;-87
2022/03/09 00:05:37;;;;;;;16.20;6.93;;;;;;;;;;7357875;19;20014;-86
2022/03/09 00:08:02;;;;;;;13.18;6.05;;;;;;;;;;7367368;19;20014;-89
2022/03/09 00:10:28;;;;;;;13.25;5.97;;;;;;;;;;7365069;19;20007;-89
2022/03/09 00:12:53;;;;;;;11.57;5.85;;;;;;;;;;7363154;19;20003;-89
2022/03/09 00:15:18;;;;;;;15.18;6.75;;;;;;;;;;7366221;19;20033;-84
2022/03/09 00:17:43;;;;;;;12.95;6.35;;;;;;;;;;7365242;19;20062;-86
2022/03/09 00:20:09;;;;;;;13.45;6.72;;;;;;;;;;7365500;19;20007;-86
2022/03/09 00:22:34;;;;;;;12.52;6.13;;;;;;;;;;7358427;19;20018;-87
2022/03/09 00:24:59;;;;;;;14.32;6.32;;;;;;;;;;7368427;19;20496;-86
2022/03/09 00:27:24;;;;;;;13.07;6.47;;;;;;;;;;7366629;19;20508;-90
2022/03/09 00:29:50;;;;;;;12.93;6.20;;;;;;;;;;7367961;19;20659;-87
2022/03/09 00:32:15;;;;;;;14.95;6.72;;;;;;;;;;7379925;19;20242;-85
2022/03/09 00:34:40;;;;;;;12.43;6.20;;;;;;;;;;7380932;19;20343;-88
2022/03/09 00:37:06;;;;;;;16.65;6.57;;;;;;;;;;7371641;19;20058;-87
2022/03/09 00:39:31;;;;;;;19.38;8.23;;;;;;;;;;7375723;19;20267;-85
2022/03/09 00:41:56;;;;;;;23.83;10.57;;;;;;;;;;7375777;19;19994;-86
2022/03/09 00:44:21;;;;;;;16.25;8.55;;;;;;;;;;7363538;19;20049;-85
2022/03/09 00:46:46;;;;;;;18.55;8.77;;;;;;;;;;7378102;19;20034;-84
2022/03/09 00:49:12;;;;;;;21.48;9.02;;;;;;;;;;7382307;19;20018;-86
2022/03/09 00:51:37;;;;;;;19.88;7.63;;;;;;;;;;7363884;19;20348;-84
2022/03/09 00:54:02;;;;;;;15.88;7.57;;;;;;;;;;7376974;19;20014;-85
2022/03/09 00:56:27;;;;;;;15.63;6.65;;;;;;;;;;7368155;19;20010;-86
2022/03/09 00:58:52;;;;;;;19.57;7.57;;;;;;;;;;7376884;19;19998;-85
2022/03/09 01:01:17;;;;;;;14.23;6.40;;;;;;;;;;7371796;19;20292;-84
2022/03/09 01:03:43;;;;;;;15.38;6.85;;;;;;;;;;7380234;19;20351;-85
2022/03/09 01:06:08;;;;;;;14.93;7.85;;;;;;;;;;7371367;19;20007;-88
2022/03/09 01:08:33;;;;;;;15.35;6.63;;;;;;;;;;7373590;19;20019;-85
2022/03/09 01:10:59;;;;;;;14.32;6.82;;;;;;;;;;7367654;19;20339;-89
2022/03/09 01:13:24;;;;;;;19.90;7.22;;;;;;;;;;7373594;19;20034;-88
2022/03/09 01:15:49;;;;;;;16.58;7.60;;;;;;;;;;7374025;19;20024;-85
2022/03/09 01:18:14;;;;;;;15.50;6.85;;;;;;;;;;7379952;19;20013;-85
2022/03/09 01:20:40;;;;;;;13.38;6.55;;;;;;;;;;7375823;19;20018;-85
2022/03/09 01:23:05;;;;;;;18.63;8.00;;;;;;;;;;7372262;19;20014;-85
2022/03/09 01:25:30;;;;;;;15.57;7.55;;;;;;;;;;7360695;19;20575;-86
2022/03/09 01:27:56;;;;;;;17.38;8.38;;;;;;;;;;7369037;19;20874;-85
2022/03/09 01:30:21;;;;;;;15.77;7.30;;;;;;;;;;7368947;19;20314;-87
2022/03/09 01:32:46;;;;;;;18.30;7.20;;;;;;;;;;7366973;19;20016;-84
2022/03/09 01:35:11;;;;;;;13.38;6.93;;;;;;;;;;7368653;19;20423;-85
2022/03/09 01:37:37;;;;;;;19.02;6.80;;;;;;;;;;7372706;19;20006;-84
2022/03/09 01:40:02;;;;;;;14.18;6.75;;;;;;;;;;7362085;19;20066;-87
2022/03/09 01:42:27;;;;;;;15.38;6.97;;;;;;;;;;7363013;19;20042;-88
2022/03/09 01:44:53;;;;;;;14.40;7.10;;;;;;;;;;7365377;19;20010;-86
2022/03/09 01:47:18;;;;;;;15.65;7.28;;;;;;;;;;7354273;19;20890;-87
2022/03/09 01:49:43;;;;;;;15.13;7.35;;;;;;;;;;7364133;19;20066;-85
2022/03/09 01:52:08;;;;;;;16.08;7.65;;;;;;;;;;7368390;19;20003;-83
2022/03/09 01:54:34;;;;;;;17.15;7.97;;;;;;;;;;7332142;19;20007;-85
2022/03/09 01:56:59;;;;;;;13.10;7.05;;;;;;;;;;7366020;19;20463;-86
2022/03/09 01:59:25;;;;;;;18.27;7.95;;;;;;;;;;7364292;19;20361;-86
2022/03/09 02:01:50;;;;;;;15.38;8.05;;;;;;;;;;7355406;19;20677;-87
2022/03/09 02:04:16;;;;;;;16.50;8.25;;;;;;;;;;7366780;19;20007;-90
2022/03/09 02:06:41;;;;;;;15.40;8.20;;;;;;;;;;7363387;19;19995;-86
2022/03/09 02:11:51;;;;;;;17.27;8.38;;;;;;;;;;7371848;19;20001;-85
2022/03/09 02:14:33;;;;;;;17.88;8.93;;;;;;;;;;7363960;19;20011;-84
2022/03/09 02:16:59;;;;;;;18.85;8.98;;;;;;;;;;7362219;19;20009;-88
2022/03/09 02:19:24;;;;;;;17.85;8.77;;;;;;;;;;7370040;19;20514;-85
2022/03/09 02:22:02;;;;;;;16.85;8.32;;;;;;;;;;7369829;19;20006;-85
2022/03/09 02:24:27;;;;;;;15.07;7.25;;;;;;;;;;7359263;19;20052;-88
2022/03/09 02:26:52;;;;;;;16.95;8.30;;;;;;;;;;7359639;19;20011;-87
2022/03/09 02:29:18;;;;;;;18.13;7.63;;;;;;;;;;7367954;19;20597;-85
2022/03/09 02:31:43;;;;;;;16.92;8.40;;;;;;;;;;7363648;19;19999;-86
2022/03/09 02:34:08;;;;;;;23.65;9.63;;;;;;;;;;7374125;19;20292;-84
2022/03/09 02:36:33;;;;;;;18.65;8.02;;;;;;;;;;7372663;19;19998;-84
2022/03/09 02:38:59;;;;;;;16.30;7.88;;;;;;;;;;7359232;19;20150;-85
2022/03/09 02:41:26;;;;;;;16.52;7.93;;;;;;;;;;7364580;19;20006;-85
2022/03/09 02:43:51;;;;;;;15.82;7.50;;;;;;;;;;7369560;19;20018;-84
2022/03/09 02:46:16;;;;;;;15.80;7.25;;;;;;;;;;7358014;19;20541;-86
2022/03/09 02:48:41;;;;;;;16.00;7.47;;;;;;;;;;7368367;19;20011;-84
2022/03/09 02:51:06;;;;;;;16.83;8.02;;;;;;;;;;7358446;19;20058;-84
2022/03/09 02:53:32;;;;;;;18.40;7.88;;;;;;;;;;7368355;19;20271;-84
2022/03/09 02:55:57;;;;;;;19.63;7.55;;;;;;;;;;7360096;19;20495;-85
2022/03/09 02:58:22;;;;;;;15.23;7.00;;;;;;;;;;7368135;19;20007;-88
2022/03/09 03:00:47;;;;;;;18.10;8.35;;;;;;;;;;7358555;19;20010;-85
2022/03/09 03:03:12;;;;;;;18.63;8.55;;;;;;;;;;7365532;19;20027;-84
2022/03/09 03:05:38;;;;;;;20.73;8.20;;;;;;;;;;7363865;19;20045;-83
2022/03/09 03:08:03;;;;;;;19.92;9.00;;;;;;;;;;7361953;19;20020;-87
2022/03/09 03:10:28;;;;;;;20.63;9.00;;;;;;;;;;7381016;19;20418;-84
2022/03/09 03:12:53;;;;;;;16.13;7.45;;;;;;;;;;7382178;19;21009;-85
2022/03/09 03:15:18;;;;;;;17.17;8.27;;;;;;;;;;7372335;19;20021;-88
2022/03/09 03:17:44;;;;;;;18.48;8.18;;;;;;;;;;7384806;19;19999;-86
2022/03/09 03:20:09;;;;;;;18.48;8.10;;;;;;;;;;7379511;19;20251;-85
2022/03/09 03:22:34;;;;;;;24.20;8.77;;;;;;;;;;7376963;19;20036;-84
2022/03/09 03:25:00;;;;;;;22.25;8.75;;;;;;;;;;7375881;19;20027;-84
2022/03/09 03:27:25;;;;;;;16.90;7.75;;;;;;;;;;7381254;19;20022;-83
2022/03/09 03:29:50;;;;;;;17.08;7.57;;;;;;;;;;7377540;19;20340;-87
2022/03/09 03:32:15;;;;;;;17.98;8.70;;;;;;;;;;7374609;19;20014;-84
2022/03/09 03:34:40;;;;;;;19.52;8.05;;;;;;;;;;7384141;19;20114;-84
2022/03/09 03:37:06;;;;;;;19.55;7.75;;;;;;;;;;7380342;19;20664;-84
2022/03/09 03:39:31;;;;;;;19.58;8.50;;;;;;;;;;7371481;19;20013;-84
2022/03/09 03:41:56;;;;;;;18.77;7.97;;;;;;;;;;7381830;19;20003;-85
2022/03/09 03:44:21;;;;;;;21.63;8.82;;;;;;;;;;7383398;19;19994;-84
2022/03/09 03:46:47;;;;;;;15.15;7.30;;;;;;;;;;7374684;19;19994;-84
2022/03/09 03:49:12;;;;;;;19.77;8.07;;;;;;;;;;7381491;19;20596;-84
2022/03/09 03:51:37;;;;;;;18.85;8.23;;;;;;;;;;7380049;19;20362;-84
2022/03/09 03:54:02;;;;;;;19.60;8.00;;;;;;;;;;7373720;19;20584;-85
2022/03/09 03:56:28;;;;;;;17.88;9.20;;;;;;;;;;7375574;19;19999;-84
2022/03/09 03:58:53;;;;;;;20.23;8.55;;;;;;;;;;7371504;19;20498;-89
2022/03/09 04:01:18;;;;;;;19.57;8.83;;;;;;;;;;7369235;19;20017;-85
2022/03/09 04:03:43;;;;;;;21.00;9.30;;;;;;;;;;7365552;19;20762;-86
2022/03/09 04:06:08;;;;;;;18.55;8.75;;;;;;;;;;7377700;19;20007;-86
2022/03/09 04:08:33;;;;;;;22.43;9.03;;;;;;;;;;7365059;19;20126;-86
2022/03/09 04:10:59;;;;;;;23.80;9.50;;;;;;;;;;7367728;19;20235;-86
2022/03/09 04:13:24;;;;;;;21.40;9.52;;;;;;;;;;7374362;19;19999;-84
2022/03/09 04:15:49;;;;;;;18.30;8.88;;;;;;;;;;7371664;19;20987;-84
2022/03/09 04:18:14;;;;;;;20.40;9.27;;;;;;;;;;7368475;19;20046;-87
2022/03/09 04:20:40;;;;;;;20.90;8.68;;;;;;;;;;7372026;19;20027;-88
2022/03/09 04:23:08;;;;;;;18.73;8.68;;;;;;;;;;7369185;19;20315;-85
2022/03/09 04:25:34;;;;;;;18.23;8.88;;;;;;;;;;7353499;19;20018;-84
2022/03/09 04:27:59;;;;;;;17.77;8.88;;;;;;;;;;7370158;19;20010;-84
2022/03/09 04:30:24;;;;;;;20.90;9.90;;;;;;;;;;7368605;19;20372;-87
2022/03/09 04:32:50;;;;;;;20.38;9.18;;;;;;;;;;7363757;19;20051;-87
2022/03/09 04:35:15;;;;;;;18.08;8.32;;;;;;;;;;7368392;19;20011;-85
2022/03/09 04:37:40;;;;;;;17.35;8.75;;;;;;;;;;7375553;19;20006;-83
2022/03/09 04:40:06;;;;;;;21.75;9.30;;;;;;;;;;7361696;19;20109;-82
2022/03/09 04:42:31;;;;;;;19.15;8.82;;;;;;;;;;7370090;19;20037;-84
2022/03/09 04:44:56;;;;;;;18.80;9.13;;;;;;;;;;7368318;19;20011;-87
2022/03/09 04:47:21;;;;;;;21.50;9.18;;;;;;;;;;7362668;19;20451;-84
2022/03/09 04:49:47;;;;;;;20.48;9.60;;;;;;;;;;7372501;19;20016;-84
2022/03/09 04:52:12;;;;;;;20.55;9.13;;;;;;;;;;7378708;19;20809;-84
2022/03/09 04:54:37;;;;;;;18.60;9.10;;;;;;;;;;7369394;19;20514;-84
2022/03/09 04:57:02;;;;;;;18.47;8.80;;;;;;;;;;7377457;19;20003;-85
2022/03/09 04:59:28;;;;;;;19.77;8.38;;;;;;;;;;7370431;19;21220;-88
2022/03/09 05:01:53;;;;;;;19.05;8.70;;;;;;;;;;7363770;19;19999;-86
2022/03/09 05:04:18;;;;;;;18.90;8.98;;;;;;;;;;7372118;19;20359;-88
2022/03/09 05:06:43;;;;;;;19.20;8.65;;;;;;;;;;7368991;19;20273;-88
2022/03/09 05:09:08;;;;;;;16.92;8.75;;;;;;;;;;7357315;19;20371;-87
2022/03/09 05:11:34;;;;;;;22.83;9.32;;;;;;;;;;7369130;19;19998;-86
2022/03/09 05:13:59;;;;;;;18.23;8.65;;;;;;;;;;7374890;19;20034;-83
2022/03/09 05:16:24;;;;;;;17.42;8.30;;;;;;;;;;7373149;19;20030;-86
2022/03/09 05:18:49;;;;;;;18.00;8.20;;;;;;;;;;7375048;19;20341;-85
2022/03/09 05:21:14;;;;;;;20.33;8.48;;;;;;;;;;7363025;19;20013;-85
2022/03/09 05:23:39;;;;;;;21.02;8.75;;;;;;;;;;7370926;19;20561;-83
2022/03/09 05:26:05;;;;;;;20.02;8.48;;;;;;;;;;7360665;19;20009;-87
2022/03/09 05:28:30;;;;;;;17.33;8.40;;;;;;;;;;7362141;19;20010;-84
2022/03/09 05:30:55;;;;;;;20.65;9.48;;;;;;;;;;7370946;19;20014;-85
2022/03/09 05:33:20;;;;;;;19.02;8.32;;;;;;;;;;7371450;19;20130;-87
2022/03/09 05:35:45;;;;;;;17.52;8.18;;;;;;;;;;7369056;19;20829;-85
2022/03/09 05:38:11;;;;;;;20.67;10.05;;;;;;;;;;7361466;19;20018;-88
2022/03/09 05:40:36;;;;;;;20.95;9.05;;;;;;;;;;7366225;19;20002;-86
2022/03/09 05:43:01;;;;;;;19.50;8.50;;;;;;;;;;7369088;19;20031;-85
2022/03/09 05:45:26;;;;;;;17.75;8.52;;;;;;;;;;7371772;19;20028;-90
2022/03/09 05:47:52;;;;;;;19.33;8.55;;;;;;;;;;7361971;19;20015;-88
2022/03/09 05:50:18;;;;;;;19.73;8.48;;;;;;;;;;7363871;19;20458;-88
2022/03/09 05:52:43;;;;;;;19.83;9.15;;;;;;;;;;7367157;19;20481;-87
2022/03/09 05:55:08;;;;;;;22.70;8.68;;;;;;;;;;7359223;19;20007;-86
2022/03/09 05:57:34;;;;;;;20.73;8.57;;;;;;;;;;7366817;19;19999;-84
2022/03/09 06:00:00;;;;;;;19.73;8.98;;;;;;;;;;7371439;19;20022;-85
2022/03/09 06:02:25;;;;;;;18.75;8.80;;;;;;;;;;7372185;19;19998;-88
2022/03/09 06:04:50;;;;;;;18.80;8.60;;;;;;;;;;7373788;19;20006;-89
2022/03/09 06:07:15;;;;;;;20.77;8.93;;;;;;;;;;7377171;19;20067;-87
2022/03/09 06:09:40;;;;;;;16.00;7.63;;;;;;;;;;7368471;19;20711;-88
2022/03/09 06:12:06;;;;;;;21.33;9.30;;;;;;;;;;7377383;19;20006;-87
2022/03/09 06:14:31;;;;;;;21.40;9.27;;;;;;;;;;7369829;19;20533;-89
2022/03/09 06:16:56;;;;;;;17.35;8.48;;;;;;;;;;7362738;19;20001;-88
2022/03/09 06:19:21;;;;;;;19.25;8.68;;;;;;;;;;7366882;19;20464;-87
2022/03/09 06:21:46;;;;;;;16.65;8.65;;;;;;;;;;7379273;19;19995;-88
2022/03/09 06:24:16;;;;;;;18.80;9.00;;;;;;;;;;7329597;19;20011;-73
2022/03/09 06:26:41;;;;;;;19.90;9.13;;;;;;;;;;7340873;19;20045;-74
2022/03/09 06:29:08;;;;;;;18.30;8.23;;;;;;;;;;7357226;19;20066;-74
2022/03/09 06:31:33;;;;;;;20.23;10.35;;;;;;;;;;7352045;19;20017;-74
2022/03/09 06:33:59;;;;;;;20.27;8.65;;;;;;;;;;7359953;19;20011;-74
2022/03/09 06:36:24;;;;;;;22.75;8.95;;;;;;;;;;7366723;19;20011;-74
2022/03/09 06:38:49;;;;;;;19.98;8.43;;;;;;;;;;7372558;19;20038;-74
2022/03/09 06:41:14;;;;;;;19.98;8.88;;;;;;;;;;7354058;19;20344;-73
2022/03/09 06:43:39;;;;;;;20.42;9.60;;;;;;;;;;7358665;19;20074;-74
2022/03/09 06:46:05;;;;;;;23.55;10.00;;;;;;;;;;7380010;19;20015;-73
2022/03/09 06:48:30;;;;;;;20.85;9.02;;;;;;;;;;7372817;19;20027;-74
2022/03/09 06:50:55;;;;;;;19.02;10.13;;;;;;;;;;7383351;19;20025;-74
2022/03/09 06:53:21;;;;;;;21.48;10.30;;;;;;;;;;7383632;19;20009;-75
2022/03/09 06:55:46;;;;;;;21.67;10.32;;;;;;;;;;7375959;19;19998;-74
2022/03/09 06:58:11;;;;;;;20.77;9.40;;;;;;;;;;7371980;19;20002;-74
2022/03/09 07:00:36;;;;;;;23.98;9.52;;;;;;;;;;7380442;19;20371;-74
2022/03/09 07:03:02;;;;;;;30.13;10.93;;;;;;;;;;7366330;19;20001;-75
2022/03/09 07:05:27;;;;;;;22.13;10.45;;;;;;;;;;7360546;19;20802;-74
2022/03/09 07:07:52;;;;;;;28.77;12.50;;;;;;;;;;7380797;19;19994;-73
2022/03/09 07:10:18;;;;;;;30.23;11.77;;;;;;;;;;7372001;19;20039;-73
2022/03/09 07:12:44;;;;;;;22.38;9.85;;;;;;;;;;7372368;19;20110;-73
2022/03/09 07:15:09;;;;;;;24.52;11.65;;;;;;;;;;7373820;19;20006;-73
2022/03/09 07:17:35;;;;;;;24.88;11.43;;;;;;;;;;7379746;19;20027;-73
2022/03/09 07:20:00;;;;;;;20.83;11.32;;;;;;;;;;7376087;19;20010;-73
2022/03/09 07:22:25;;;;;;;23.83;11.15;;;;;;;;;;7379147;19;20005;-74
2022/03/09 07:24:50;;;;;;;26.27;12.43;;;;;;;;;;7369613;19;20027;-74
2022/03/09 07:27:16;;;;;;;29.35;11.02;;;;;;;;;;7364394;19;20005;-74
2022/03/09 07:29:41;;;;;;;29.67;12.85;;;;;;;;;;7372418;19;20029;-74
2022/03/09 07:32:08;;;;;;;24.38;10.60;;;;;;;;;;7372139;19;20021;-73
2022/03/09 07:34:33;;;;;;;32.92;12.93;;;;;;;;;;7363195;19;20056;-74
2022/03/09 07:36:59;;;;;;;33.10;12.45;;;;;;;;;;7372016;19;20022;-73
2022/03/09 07:39:26;;;;;;;28.48;11.95;;;;;;;;;;7364813;19;20006;-74
2022/03/09 07:41:52;;;;;;;26.92;11.20;;;;;;;;;;7356404;19;20094;-74
2022/03/09 07:44:17;;;;;;;30.35;11.80;;;;;;;;;;7368837;19;20048;-74
2022/03/09 07:46:42;;;;;;;27.35;12.10;;;;;;;;;;7369244;19;20493;-74
2022/03/09 07:49:08;;;;;;;27.88;12.85;;;;;;;;;;7377973;19;20015;-74
2022/03/09 07:51:33;;;;;;;26.48;12.57;;;;;;;;;;7381628;19;20002;-74
2022/03/09 07:53:58;;;;;;;24.63;12.27;;;;;;;;;;7371014;19;20013;-74
2022/03/09 07:56:24;;;;;;;27.85;13.20;;;;;;;;;;7377396;19;19994;-74
2022/03/09 07:58:49;;;;;;;28.15;14.65;;;;;;;;;;7376235;19;20434;-75
2022/03/09 08:01:14;;;;;;;28.80;13.35;;;;;;;;;;7378379;19;20831;-76
2022/03/09 08:03:39;;;;;;;22.65;12.00;;;;;;;;;;7380336;19;20011;-76
2022/03/09 08:06:04;;;;;;;23.52;11.85;;;;;;;;;;7369795;19;20010;-76
2022/03/09 08:08:30;;;;;;;24.92;11.95;;;;;;;;;;7377303;19;20044;-75
2022/03/09 08:10:55;;;;;;;24.17;10.77;;;;;;;;;;7376906;19;20014;-75
2022/03/09 08:13:21;;;;;;;21.63;10.13;;;;;;;;;;7374405;19;20018;-76
2022/03/09 08:15:46;;;;;;;19.42;9.68;;;;;;;;;;7381287;19;20599;-75
2022/03/09 08:18:11;;;;;;;18.30;9.52;;;;;;;;;;7381872;19;20365;-76
2022/03/09 08:20:37;;;;;;;27.00;11.85;;;;;;;;;;7370302;19;20015;-75
2022/03/09 08:23:02;;;;;;;21.30;9.95;;;;;;;;;;7384373;19;20010;-75
2022/03/09 08:25:27;;;;;;;18.70;10.27;;;;;;;;;;7369446;19;20014;-75
2022/03/09 08:27:52;;;;;;;20.50;9.95;;;;;;;;;;7377286;19;20027;-75
2022/03/09 08:30:17;;;;;;;20.58;9.52;;;;;;;;;;7381219;19;20002;-75
2022/03/09 08:32:43;;;;;;;17.25;9.05;;;;;;;;;;7363384;19;20014;-74
2022/03/09 08:35:08;;;;;;;20.70;10.53;;;;;;;;;;7379364;19;20337;-75
2022/03/09 08:37:33;;;;;;;18.42;9.90;;;;;;;;;;7380095;19;20270;-75
2022/03/09 08:39:58;;;;;;;29.35;10.32;;;;;;;;;;7371546;19;20010;-74
2022/03/09 08:42:23;;;;;;;20.42;10.57;;;;;;;;;;7371825;19;20015;-75
2022/03/09 08:44:50;;;;;;;22.48;10.55;;;;;;;;;;7372423;19;20014;-75
2022/03/09 08:47:15;;;;;;;19.95;10.05;;;;;;;;;;7367715;19;20014;-75
2022/03/09 08:49:41;;;;;;;29.03;10.97;;;;;;;;;;7382471;19;20017;-74
2022/03/09 08:52:10;;;;;;;24.00;10.50;;;;;;;;;;7374344;19;20580;-74
2022/03/09 08:54:35;;;;;;;19.67;9.98;;;;;;;;;;7381311;19;20018;-74
2022/03/09 08:57:01;;;;;;;21.45;10.95;;;;;;;;;;7379770;19;20344;-74
2022/03/09 08:59:26;;;;;;;19.63;10.52;;;;;;;;;;7372947;19;20018;-74
2022/03/09 09:01:51;;;;;;;21.73;11.10;;;;;;;;;;7379634;19;20005;-74
2022/03/09 09:04:16;;;;;;;22.53;11.53;;;;;;;;;;7374928;19;20025;-75
2022/03/09 09:06:42;;;;;;;21.10;11.30;;;;;;;;;;7378293;19;20588;-74
2022/03/09 09:09:08;;;;;;;19.63;10.35;;;;;;;;;;7374597;19;20291;-74
2022/03/09 09:11:33;;;;;;;19.02;10.55;;;;;;;;;;7362007;19;20002;-74
2022/03/09 09:13:58;;;;;;;20.13;10.47;;;;;;;;;;7380328;19;20015;-74
2022/03/09 09:16:23;;;;;;;20.73;10.80;;;;;;;;;;7378776;19;20698;-74
2022/03/09 09:18:49;;;;;;;22.25;10.85;;;;;;;;;;7370302;19;20323;-74
2022/03/09 09:21:14;;;;;;;20.48;11.70;;;;;;;;;;7381687;19;20062;-75
2022/03/09 09:23:39;;;;;;;21.35;11.00;;;;;;;;;;7379687;19;20074;-75
2022/03/09 09:26:05;;;;;;;20.88;10.30;;;;;;;;;;7362547;19;20006;-74
2022/03/09 09:28:30;;;;;;;19.30;10.95;;;;;;;;;;7376273;19;20006;-74
2022/03/09 09:30:55;;;;;;;28.77;12.35;;;;;;;;;;7374853;19;20006;-76
2022/03/09 09:33:21;;;;;;;23.27;11.85;;;;;;;;;;7377381;19;20394;-74
2022/03/09 09:35:47;;;;;;;24.35;11.65;;;;;;;;;;7372200;19;20327;-74
2022/03/09 09:38:13;;;;;;;24.88;11.88;;;;;;;;;;7366273;19;20652;-75
2022/03/09 09:40:43;;;;;;;22.93;12.63;;;;;;;;;;7375282;19;20005;-75
2022/03/09 09:43:12;;;;;;;20.67;11.23;;;;;;;;;;7375634;19;20578;-75
2022/03/09 09:45:38;;;;;;;24.35;12.30;;;;;;;;;;7368894;19;20483;-76
2022/03/09 09:48:04;;;;;;;21.10;12.20;;;;;;;;;;7365080;19;20046;-75
2022/03/09 09:50:29;;;;;;;20.63;12.25;;;;;;;;;;7370576;19;20011;-75
2022/03/09 09:52:54;;;;;;;21.17;12.25;;;;;;;;;;7365192;19;20042;-76
2022/03/09 09:55:20;;;;;;;23.40;12.57;;;;;;;;;;7365944;19;20015;-75
2022/03/09 09:57:48;;;;;;;22.38;12.73;;;;;;;;;;7369980;19;20066;-75
2022/03/09 10:00:14;;;;;;;24.15;12.18;;;;;;;;;;7362922;19;20074;-75
2022/03/09 10:02:40;;;;;;;24.33;12.90;;;;;;;;;;7380081;19;20002;-75
2022/03/09 10:05:06;;;;;;;25.23;13.10;;;;;;;;;;7375005;19;20042;-76
2022/03/09 10:07:31;;;;;;;23.90;12.75;;;;;;;;;;7375011;19;20749;-76
2022/03/09 10:09:56;;;;;;;22.63;12.87;;;;;;;;;;7377797;19;20377;-74
2022/03/09 10:12:25;;;;;;;22.30;12.60;;;;;;;;;;7370816;19;20266;-75
2022/03/09 10:14:54;;;;;;;22.00;12.85;;;;;;;;;;7376422;19;20011;-75
2022/03/09 10:17:21;;;;;;;24.65;13.18;;;;;;;;;;7381922;19;20467;-75
2022/03/09 10:19:51;;;;;;;29.73;14.00;;;;;;;;;;7371679;19;20019;-75
2022/03/09 10:22:35;;;;;;;27.17;13.25;;;;;;;;;;7380100;19;20398;-75
2022/03/09 10:25:16;;;;;;;25.23;13.63;;;;;;;;;;7375654;19;20282;-75
2022/03/09 10:27:43;;;;;;;28.95;13.68;;;;;;;;;;7368738;19;20010;-76
2022/03/09 10:30:08;;;;;;;28.58;14.30;;;;;;;;;;7379584;19;20026;-75
2022/03/09 10:32:46;;;;;;;28.35;14.50;;;;;;;;;;7375442;19;20028;-76
2022/03/09 10:35:12;;;;;;;29.65;13.70;;;;;;;;;;7372225;19;20015;-76
2022/03/09 10:37:42;;;;;;;27.20;14.00;;;;;;;;;;7375477;19;20024;-76
2022/03/09 10:40:08;;;;;;;24.13;14.02;;;;;;;;;;7370895;19;20022;-75
2022/03/09 10:42:35;;;;;;;28.10;15.30;;;;;;;;;;7372859;19;20011;-75
2022/03/09 10:45:03;;;;;;;24.20;14.30;;;;;;;;;;7378229;19;20023;-75
2022/03/09 10:47:28;;;;;;;29.40;14.20;;;;;;;;;;7370760;19;20066;-75
2022/03/09 10:49:53;;;;;;;27.80;14.90;;;;;;;;;;7380660;19;20472;-73
2022/03/09 10:52:19;;;;;;;27.40;15.13;;;;;;;;;;7381947;19;20271;-76
2022/03/09 10:54:44;;;;;;;27.85;15.25;;;;;;;;;;7377390;19;20243;-75
2022/03/09 10:57:10;;;;;;;27.90;15.53;;;;;;;;;;7382286;19;20387;-74
2022/03/09 10:59:47;;;;;;;24.98;15.00;;;;;;;;;;7384061;19;20259;-75
2022/03/09 11:02:12;;;;;;;29.02;15.60;;;;;;;;;;7375665;19;20096;-74
2022/03/09 11:04:38;;;;;;;29.70;15.52;;;;;;;;;;7377449;19;20120;-75
2022/03/09 11:07:03;;;;;;;28.02;15.45;;;;;;;;;;7362982;19;20541;-77
2022/03/09 11:09:29;;;;;;;33.20;16.33;;;;;;;;;;7368478;19;20558;-74
2022/03/09 11:11:55;;;;;;;30.40;15.77;;;;;;;;;;7379283;19;20074;-75
2022/03/09 11:14:20;;;;;;;30.98;16.45;;;;;;;;;;7364378;19;20045;-75
2022/03/09 11:16:47;;;;;;;38.58;17.10;;;;;;;;;;7371434;19;20005;-75
2022/03/09 11:19:13;;;;;;;34.10;16.55;;;;;;;;;;7368523;19;20015;-76
2022/03/09 11:21:39;;;;;;;35.03;17.30;;;;;;;;;;7365697;19;20014;-75
2022/03/09 11:24:05;;;;;;;27.33;15.82;;;;;;;;;;7369068;19;20023;-75
2022/03/09 11:26:32;;;;;;;35.10;16.20;;;;;;;;;;7361326;19;20492;-75
2022/03/09 11:29:02;;;;;;;30.38;16.75;;;;;;;;;;7368807;19;20042;-75
2022/03/09 11:31:45;;;;;;;29.88;16.67;;;;;;;;;;7368367;19;20356;-77
2022/03/09 11:34:29;;;;;;;29.23;15.63;;;;;;;;;;7368010;19;20401;-75
2022/03/09 11:36:59;;;;;;;26.35;15.45;;;;;;;;;;7375797;19;20005;-76
2022/03/09 11:39:24;;;;;;;29.77;16.73;;;;;;;;;;7370052;19;20018;-75
2022/03/09 11:42:10;;;;;;;31.85;16.88;;;;;;;;;;7366404;19;20010;-74
2022/03/09 11:44:36;;;;;;;29.38;16.77;;;;;;;;;;7368744;19;20002;-76
2022/03/09 11:47:03;;;;;;;35.30;19.25;;;;;;;;;;7370078;19;20019;-75
2022/03/09 11:49:41;;;;;;;38.30;17.42;;;;;;;;;;7372895;19;20015;-75
2022/03/09 11:52:11;;;;;;;34.92;19.02;;;;;;;;;;7360323;19;20023;-76
2022/03/09 11:54:39;;;;;;;32.65;18.23;;;;;;;;;;7289613;19;20442;-74
2022/03/09 11:57:04;;;;;;;33.55;18.45;;;;;;;;;;7338860;19;20035;-74
2022/03/09 11:59:29;;;;;;;33.43;17.93;;;;;;;;;;7359211;19;20624;-75
2022/03/09 12:01:57;;;;;;;33.38;17.83;;;;;;;;;;7373083;19;20220;-77
2022/03/09 12:04:42;;;;;;;34.97;18.35;;;;;;;;;;7363948;19;20021;-75
2022/03/09 12:07:07;;;;;;;34.95;18.73;;;;;;;;;;7382665;19;20002;-74
2022/03/09 12:09:51;;;;;;;38.97;20.02;;;;;;;;;;7363108;19;20343;-76
2022/03/09 12:12:16;;;;;;;34.95;19.70;;;;;;;;;;7357815;19;20270;-75
2022/03/09 12:15:03;;;;;;;39.05;19.90;;;;;;;;;;7374616;19;20353;-76
2022/03/09 12:17:28;;;;;;;34.33;19.13;;;;;;;;;;7371541;19;20013;-73
2022/03/09 12:20:12;;;;;;;34.70;18.48;;;;;;;;;;7379109;19;20479;-75
2022/03/09 12:23:01;;;;;;;36.13;19.23;;;;;;;;;;7381838;19;20003;-75
2022/03/09 12:25:38;;;;;;;33.85;18.45;;;;;;;;;;7370009;19;20011;-75
2022/03/09 12:28:22;;;;;;;33.97;18.42;;;;;;;;;;7376222;19;20002;-75
2022/03/09 12:30:48;;;;;;;34.13;18.38;;;;;;;;;;7370092;19;20628;-75
2022/03/09 12:33:20;;;;;;;37.17;19.15;;;;;;;;;;7372316;19;20002;-76
2022/03/09 12:35:45;;;;;;;36.65;19.58;;;;;;;;;;7371943;19;20015;-78
2022/03/09 12:38:11;;;;;;;34.73;18.37;;;;;;;;;;7375449;19;20009;-76
2022/03/09 12:40:36;;;;;;;40.05;20.33;;;;;;;;;;7363709;19;20466;-77
2022/03/09 12:43:01;;;;;;;34.57;18.53;;;;;;;;;;7377484;19;20344;-76
2022/03/09 12:45:26;;;;;;;38.67;19.25;;;;;;;;;;7372858;19;20239;-76
2022/03/09 12:47:54;;;;;;;40.50;20.87;;;;;;;;;;7379802;19;19995;-75
2022/03/09 12:50:23;;;;;;;34.90;19.17;;;;;;;;;;7375132;19;20017;-75
2022/03/09 12:52:48;;;;;;;36.67;18.67;;;;;;;;;;7381887;19;20066;-75
2022/03/09 12:55:16;;;;;;;36.03;18.63;;;;;;;;;;7367516;19;20460;-75
2022/03/09 12:57:41;;;;;;;37.00;20.00;;;;;;;;;;7367040;19;20767;-75
2022/03/09 13:00:08;;;;;;;34.40;17.83;;;;;;;;;;7355674;19;20007;-75
2022/03/09 13:02:36;;;;;;;36.30;17.98;;;;;;;;;;7368550;19;20962;-76
2022/03/09 13:05:02;;;;;;;32.20;17.35;;;;;;;;;;7368366;19;20478;-76
2022/03/09 13:07:28;;;;;;;34.03;17.50;;;;;;;;;;7362968;19;20027;-74
2022/03/09 13:10:03;;;;;;;33.83;18.35;;;;;;;;;;7364360;19;20584;-74
2022/03/09 13:12:28;;;;;;;33.88;17.30;;;;;;;;;;7360200;19;20022;-76
2022/03/09 13:14:54;;;;;;;32.45;17.83;;;;;;;;;;7368480;19;20013;-76
2022/03/09 13:17:19;;;;;;;33.47;17.52;;;;;;;;;;7371025;19;20042;-76
2022/03/09 13:19:44;;;;;;;29.85;17.08;;;;;;;;;;7364030;19;20573;-75
2022/03/09 13:22:10;;;;;;;30.00;16.67;;;;;;;;;;7359431;19;20016;-76
2022/03/09 13:24:35;;;;;;;30.17;16.88;;;;;;;;;;7361170;19;20010;-75
2022/03/09 13:27:12;;;;;;;29.63;16.97;;;;;;;;;;7369199;19;20010;-76
2022/03/09 13:29:40;;;;;;;29.85;16.98;;;;;;;;;;7369937;19;20014;-76
2022/03/09 13:32:06;;;;;;;28.90;16.20;;;;;;;;;;7373932;19;20014;-75
2022/03/09 13:34:34;;;;;;;27.50;16.05;;;;;;;;;;7363585;19;20149;-76
2022/03/09 13:36:59;;;;;;;31.13;15.98;;;;;;;;;;7370529;19;20509;-76
2022/03/09 13:39:24;;;;;;;30.10;16.65;;;;;;;;;;7362442;19;20015;-75
2022/03/09 13:41:49;;;;;;;29.37;16.00;;;;;;;;;;7372315;19;20006;-74
2022/03/09 13:44:28;;;;;;;31.88;16.02;;;;;;;;;;7371700;19;20243;-74
2022/03/09 13:47:07;;;;;;;30.40;16.27;;;;;;;;;;7364613;19;20441;-75
2022/03/09 13:50:02;;;;;;;31.05;16.48;;;;;;;;;;7371955;19;20033;-74
2022/03/09 13:52:27;;;;;;;;;;;;;;;;;;7363804;19;20044;-75
2022/03/09 13:54:52;;;;;;;26.92;15.05;;;;;;;;;;7371121;19;20011;-73
2022/03/09 13:57:32;;;;;;;25.80;14.23;;;;;;;;;;7369256;19;20006;-74
2022/03/09 13:59:58;;;;;;;30.75;15.70;;;;;;;;;;7368547;19;20022;-74
2022/03/09 14:02:25;;;;;;;28.10;15.60;;;;;;;;;;7371968;19;20364;-74
2022/03/09 14:04:50;;;;;;;30.05;16.15;;;;;;;;;;7375345;19;20977;-74
2022/03/09 14:07:16;;;;;;;31.80;16.50;;;;;;;;;;7366518;19;20002;-72
2022/03/09 14:09:41;;;;;;;30.55;16.77;;;;;;;;;;7375421;19;20010;-74
2022/03/09 14:12:16;;;;;;;32.85;17.25;;;;;;;;;;7371323;19;19995;-73
2022/03/09 14:14:41;;;;;;;29.02;15.85;;;;;;;;;;7371736;19;20362;-75
2022/03/09 14:17:06;;;;;;;28.48;15.88;;;;;;;;;;7375777;19;20066;-76
2022/03/09 14:19:32;;;;;;;28.38;15.05;;;;;;;;;;7371327;19;20010;-74
2022/03/09 14:21:57;;;;;;;24.47;13.80;;;;;;;;;;7372132;19;20015;-77